createdAt,value
2023-02-20T00:01:00.747Z,28.35
2023-02-20T00:06:03.741Z,30.50
2023-02-20T00:11:06.783Z,27.35
2023-02-20T00:16:09.841Z,30.40
2023-02-20T00:21:13.352Z,27.52
2023-02-20T00:26:16.573Z,22.40
2023-02-20T00:31:20.296Z,29.55
2023-02-20T00:36:23.362Z,21.38
2023-02-20T00:41:26.495Z,26.08
2023-02-20T00:46:29.639Z,22.00
2023-02-20T00:51:33.872Z,26.42
2023-02-20T00:56:36.979Z,25.48
2023-02-20T01:01:40.207Z,24.88
2023-02-20T01:06:43.335Z,24.25
2023-02-20T01:11:48.322Z,23.67
2023-02-20T01:16:53.119Z,22.67
2023-02-20T01:21:56.445Z,23.98
2023-02-20T01:26:59.459Z,28.10
2023-02-20T01:32:02.618Z,23.50
2023-02-20T01:37:06.019Z,22.95
2023-02-20T01:42:18.041Z,24.10
2023-02-20T01:47:24.055Z,29.27
2023-02-20T01:52:29.624Z,28.60
2023-02-20T01:57:35.928Z,22.10
2023-02-20T02:02:42.676Z,24.48
2023-02-20T02:07:46.106Z,20.35
2023-02-20T02:12:53.523Z,24.48
2023-02-20T02:18:02.382Z,26.15
2023-02-20T02:23:33.957Z,24.85
2023-02-20T02:28:51.831Z,24.30
2023-02-20T02:34:03.462Z,22.08
2023-02-20T02:39:21.288Z,18.10
2023-02-20T02:44:37.551Z,21.27
2023-02-20T02:50:02.854Z,27.23
2023-02-20T02:55:08.913Z,23.70
2023-02-20T03:00:17.191Z,26.02
2023-02-20T03:05:23.726Z,17.58
2023-02-20T03:10:32.231Z,21.35
2023-02-20T03:15:51.921Z,29.67
2023-02-20T03:20:59.508Z,19.13
2023-02-20T03:26:19.694Z,25.77
2023-02-20T03:31:33.985Z,20.02
2023-02-20T03:37:12.785Z,21.70
2023-02-20T03:42:37.918Z,19.83
2023-02-20T03:47:55.147Z,23.35
2023-02-20T03:52:59.296Z,26.42
2023-02-20T03:58:08.988Z,20.27
2023-02-20T04:03:19.060Z,22.80
2023-02-20T04:08:39.825Z,19.35
2023-02-20T04:13:45.021Z,22.48
2023-02-20T04:18:49.043Z,23.23
2023-02-20T04:24:04.483Z,27.17
2023-02-20T04:29:08.134Z,25.00
2023-02-20T04:34:12.068Z,21.40
2023-02-20T04:39:16.214Z,21.65
2023-02-20T04:44:35.536Z,18.05
2023-02-20T04:49:41.572Z,27.60
2023-02-20T04:54:47.059Z,15.82
2023-02-20T04:59:51.697Z,26.05
2023-02-20T05:04:54.921Z,21.85
2023-02-20T05:09:57.976Z,15.70
2023-02-20T05:15:01.117Z,21.05
2023-02-20T05:20:05.825Z,17.90
2023-02-20T05:25:09.428Z,20.02
2023-02-20T05:30:12.998Z,16.25
2023-02-20T05:35:16.200Z,20.48
2023-02-20T05:40:19.212Z,24.98
2023-02-20T05:45:22.245Z,23.02
2023-02-20T05:50:25.306Z,19.90
2023-02-20T05:55:28.310Z,20.33
2023-02-20T06:00:31.332Z,20.63
2023-02-20T06:05:34.424Z,19.83
2023-02-20T06:10:37.525Z,18.08
2023-02-20T06:15:40.504Z,23.38
2023-02-20T06:20:43.598Z,24.17
2023-02-20T06:25:46.764Z,21.25
2023-02-20T06:30:49.807Z,16.65
2023-02-20T06:35:52.866Z,23.42
2023-02-20T06:40:55.954Z,29.67
2023-02-20T06:45:59.079Z,21.77
2023-02-20T06:51:02.243Z,24.05
2023-02-20T06:56:11.419Z,22.02
2023-02-20T07:01:16.136Z,22.45
2023-02-20T07:06:19.455Z,24.65
2023-02-20T07:11:24.094Z,21.23
2023-02-20T07:16:27.224Z,25.23
2023-02-20T07:21:30.299Z,26.33
2023-02-20T07:26:33.383Z,28.60
2023-02-20T07:31:36.500Z,21.83
2023-02-20T07:36:41.680Z,26.65
2023-02-20T07:41:45.299Z,25.85
2023-02-20T07:47:11.404Z,27.83
2023-02-20T07:52:14.553Z,24.63
2023-02-20T07:57:17.626Z,27.23
2023-02-20T08:02:20.656Z,31.48
2023-02-20T08:07:26.700Z,32.97
2023-02-20T08:12:29.721Z,31.42
2023-02-20T08:17:45.629Z,29.33
2023-02-20T08:22:51.264Z,27.27
2023-02-20T08:27:54.306Z,25.90
2023-02-20T08:32:57.483Z,30.33
2023-02-20T08:38:05.796Z,28.48
2023-02-20T08:43:08.841Z,29.50
2023-02-20T08:48:12.080Z,29.92
2023-02-20T08:53:16.284Z,27.42
2023-02-20T08:58:21.883Z,24.33
2023-02-20T09:03:26.190Z,25.52
2023-02-20T09:08:29.236Z,19.30
2023-02-20T09:13:32.550Z,18.95
2023-02-20T09:18:35.602Z,18.73
2023-02-20T09:23:39.167Z,20.30
2023-02-20T09:28:42.288Z,16.05
2023-02-20T09:33:51.061Z,19.63
2023-02-20T09:38:54.698Z,12.00
2023-02-20T09:44:09.682Z,13.20
2023-02-20T09:49:21.365Z,17.13
2023-02-20T09:54:36.594Z,17.20
2023-02-20T09:59:51.411Z,17.63
2023-02-20T10:05:02.879Z,15.90
2023-02-20T10:10:25.756Z,39.42
2023-02-20T10:15:51.895Z,20.08
2023-02-20T10:20:54.927Z,18.55
2023-02-20T10:26:03.064Z,15.80
2023-02-20T10:31:36.712Z,16.48
2023-02-20T10:36:45.266Z,17.05
2023-02-20T10:42:04.506Z,29.85
2023-02-20T10:47:16.408Z,20.25
2023-02-20T10:52:33.998Z,22.33
2023-02-20T10:57:44.348Z,24.75
2023-02-20T11:08:00.902Z,21.10
2023-02-20T11:13:04.054Z,18.58
2023-02-20T11:18:20.704Z,23.13
2023-02-20T11:23:46.823Z,23.73
2023-02-20T11:29:04.685Z,25.55
2023-02-20T11:34:20.314Z,25.73
2023-02-20T11:39:31.078Z,21.15
2023-02-20T11:44:34.408Z,24.83
2023-02-20T11:49:37.827Z,29.00
2023-02-20T11:54:41.076Z,23.25
2023-02-20T11:59:51.124Z,21.52
2023-02-20T12:05:14.510Z,20.98
2023-02-20T12:10:33.813Z,25.85
2023-02-20T12:15:37.038Z,21.88
2023-02-20T12:20:54.882Z,23.65
2023-02-20T12:26:22.408Z,25.52
2023-02-20T12:31:39.093Z,29.95
2023-02-20T12:36:54.556Z,27.17
2023-02-20T12:42:22.103Z,25.50
2023-02-20T12:47:35.138Z,26.60
2023-02-20T12:52:56.435Z,25.27
2023-02-20T12:58:27.115Z,27.75
2023-02-20T13:03:58.870Z,25.05
2023-02-20T13:09:18.860Z,23.70
2023-02-20T13:14:31.434Z,29.13
2023-02-20T13:19:46.197Z,23.98
2023-02-20T13:24:51.480Z,27.42
2023-02-20T13:30:03.020Z,28.45
2023-02-20T13:35:41.138Z,27.20
2023-02-20T13:41:05.852Z,27.15
2023-02-20T13:46:14.006Z,26.08
2023-02-20T13:51:18.200Z,31.35
2023-02-20T13:56:39.253Z,31.63
2023-02-20T14:01:58.870Z,31.25
2023-02-20T14:07:02.004Z,29.15
2023-02-20T14:12:11.777Z,28.58
2023-02-20T14:17:22.056Z,36.50
2023-02-20T14:22:34.406Z,30.33
2023-02-20T14:27:38.100Z,34.00
2023-02-20T14:33:19.061Z,29.80
2023-02-20T14:38:40.648Z,34.90
2023-02-20T14:43:43.814Z,31.00
2023-02-20T14:48:46.860Z,30.05
2023-02-20T14:54:11.494Z,30.15
2023-02-20T14:59:39.003Z,26.30
2023-02-20T15:05:01.489Z,36.67
2023-02-20T15:10:28.756Z,33.15
2023-02-20T15:15:36.885Z,31.30
2023-02-20T15:20:45.596Z,80.43
2023-02-20T15:25:48.819Z,34.53
2023-02-20T15:31:03.251Z,36.35
2023-02-20T15:36:12.105Z,35.67
2023-02-20T15:41:15.544Z,32.72
2023-02-20T15:46:25.341Z,30.52
2023-02-20T15:51:29.505Z,35.83
2023-02-20T15:56:34.945Z,32.42
2023-02-20T16:01:38.707Z,33.33
2023-02-20T16:06:43.710Z,31.13
2023-02-20T16:11:47.957Z,33.30
2023-02-20T16:16:53.535Z,32.13
2023-02-20T16:21:59.578Z,26.05
2023-02-20T16:27:04.393Z,28.55
2023-02-20T16:32:17.093Z,22.00
2023-02-20T16:37:21.056Z,18.65
2023-02-20T16:42:37.250Z,18.35
2023-02-20T16:47:40.791Z,22.52
2023-02-20T16:52:43.874Z,13.90
2023-02-20T16:57:47.375Z,18.67
2023-02-20T17:02:50.423Z,16.58
2023-02-20T17:07:53.814Z,17.63
2023-02-20T17:12:57.713Z,15.40
2023-02-20T17:18:00.766Z,15.35
2023-02-20T17:23:06.920Z,12.05
2023-02-20T17:28:10.233Z,13.90
2023-02-20T17:33:13.238Z,9.63
2023-02-20T17:38:16.632Z,6.43
2023-02-20T17:43:19.631Z,8.13
2023-02-20T17:48:22.695Z,12.60
2023-02-20T17:53:26.135Z,6.90
2023-02-20T17:58:29.154Z,8.15
2023-02-20T18:03:32.235Z,11.02
2023-02-20T18:08:35.329Z,7.85
2023-02-20T18:13:38.368Z,11.57
2023-02-20T18:18:42.777Z,8.50
2023-02-20T18:23:46.375Z,3.53
2023-02-20T18:28:49.696Z,6.68
2023-02-20T18:33:55.176Z,4.03
2023-02-20T18:38:58.309Z,7.28
2023-02-20T18:44:01.423Z,5.05
2023-02-20T18:49:04.848Z,5.45
2023-02-20T18:54:17.101Z,4.03
2023-02-20T18:59:20.586Z,4.55
2023-02-20T19:04:24.868Z,5.18
2023-02-20T19:09:27.983Z,2.45
2023-02-20T19:14:31.014Z,6.15
2023-02-20T19:19:34.834Z,6.78
2023-02-20T19:24:39.215Z,3.28
2023-02-20T19:29:42.606Z,5.22
2023-02-20T19:34:46.712Z,3.80
2023-02-20T19:39:49.760Z,3.15
2023-02-20T19:44:55.799Z,3.13
2023-02-20T19:49:58.767Z,4.40
2023-02-20T19:55:01.760Z,4.05
2023-02-20T20:00:10.479Z,5.78
2023-02-20T20:05:17.252Z,2.08
2023-02-20T20:10:21.811Z,4.30
2023-02-20T20:15:27.714Z,1.40
2023-02-20T20:20:34.006Z,1.90
2023-02-20T20:25:38.779Z,4.03
2023-02-20T20:30:42.018Z,4.82
2023-02-20T20:35:45.159Z,5.65
2023-02-20T20:40:48.323Z,1.92
2023-02-20T20:45:51.442Z,4.63
2023-02-20T20:50:54.438Z,7.28
2023-02-20T20:55:57.513Z,4.40
2023-02-20T21:01:00.574Z,1.45
2023-02-20T21:06:04.134Z,2.22
2023-02-20T21:11:07.392Z,1.45
2023-02-20T21:16:10.431Z,3.78
2023-02-20T21:21:13.802Z,3.00
2023-02-20T21:26:16.948Z,3.83
2023-02-20T21:31:21.751Z,5.10
2023-02-20T21:36:25.109Z,4.47
2023-02-20T21:41:46.801Z,4.53
2023-02-20T21:46:51.001Z,6.57
2023-02-20T21:51:54.596Z,2.60
2023-02-20T21:56:59.225Z,1.40
2023-02-20T22:02:02.329Z,3.15
2023-02-20T22:07:23.648Z,2.00
2023-02-20T22:12:45.132Z,3.30
2023-02-20T22:18:06.847Z,4.25
2023-02-20T22:23:28.202Z,1.98
2023-02-20T22:28:49.793Z,1.83
2023-02-20T22:34:11.095Z,2.63
2023-02-20T22:39:36.690Z,3.55
2023-02-20T22:44:58.463Z,3.72
2023-02-20T22:50:20.044Z,3.63
2023-02-20T22:55:41.699Z,3.83
2023-02-20T23:01:03.507Z,2.85
2023-02-20T23:06:25.159Z,1.95
2023-02-20T23:11:46.758Z,1.85
2023-02-20T23:17:08.075Z,1.90
2023-02-20T23:22:29.679Z,7.15
2023-02-20T23:27:51.166Z,1.15
2023-02-20T23:33:12.806Z,1.02
2023-02-20T23:38:34.072Z,2.55
2023-02-20T23:43:55.449Z,2.83
2023-02-20T23:49:17.078Z,4.55
2023-02-20T23:54:38.644Z,2.22
